Time;durP1;ratioP1;P1;durP2;ratioP2;P2;SDS_P1;SDS_P2;PMS_P1;PMS_P2;Temp;Humidity;BMP_temperature;BMP_pressure;BME280_temperature;BME280_humidity;BME280_pressure;Samples;Min_cycle;Max_cycle;Signal;HPM_P1;HPM_P2
2021/08/01 00:01:59;;;;;;;3.65;3.30;;;19.40;77.00;;;;;;6200423;28;20137;-75
2021/08/01 00:05:01;;;;;;;5.43;4.60;;;19.40;77.10;;;;;;6199888;28;20570;-75
2021/08/01 00:08:03;;;;;;;3.70;3.15;;;19.40;76.90;;;;;;6199878;28;20047;-75
2021/08/01 00:11:05;;;;;;;7.88;5.82;;;19.50;76.90;;;;;;6199830;28;20054;-75
2021/08/01 00:14:07;;;;;;;6.93;2.97;;;19.50;76.80;;;;;;6200463;28;20050;-75
2021/08/01 00:17:10;;;;;;;8.05;4.50;;;19.40;76.70;;;;;;6199389;28;20192;-75
2021/08/01 00:20:12;;;;;;;6.43;4.30;;;19.40;76.60;;;;;;6199721;28;20073;-75
2021/08/01 00:23:14;;;;;;;8.07;3.67;;;19.40;76.70;;;;;;6199730;28;20121;-75
2021/08/01 00:26:15;;;;;;;3.97;3.10;;;19.40;76.80;;;;;;6199571;28;20417;-75
2021/08/01 00:29:17;;;;;;;4.00;3.55;;;19.40;76.70;;;;;;6199509;28;20128;-75
2021/08/01 00:32:20;;;;;;;5.35;2.90;;;19.30;76.50;;;;;;6199516;28;20054;-75
2021/08/01 00:35:22;;;;;;;4.10;3.33;;;19.30;76.90;;;;;;6199288;28;20567;-75
2021/08/01 00:38:24;;;;;;;6.57;3.65;;;19.30;76.80;;;;;;6198831;28;20052;-75
2021/08/01 00:41:26;;;;;;;4.85;3.60;;;19.30;76.90;;;;;;6199431;28;20139;-75
2021/08/01 00:44:28;;;;;;;5.15;3.72;;;19.30;77.00;;;;;;6199203;28;20050;-75
2021/08/01 00:47:31;;;;;;;4.55;3.10;;;19.30;77.10;;;;;;6197136;28;20415;-75
2021/08/01 00:50:33;;;;;;;4.82;3.88;;;19.20;77.40;;;;;;6222904;28;20143;-74
2021/08/01 00:53:35;;;;;;;4.28;3.85;;;19.20;77.80;;;;;;6223697;28;20538;-75
2021/08/01 00:56:37;;;;;;;5.40;3.80;;;19.20;78.10;;;;;;6222717;28;20132;-75
2021/08/01 00:59:40;;;;;;;5.80;3.58;;;19.10;78.40;;;;;;6223261;28;20123;-75
2021/08/01 01:02:48;;;;;;;4.15;3.72;;;19.10;78.30;;;;;;6223156;28;20057;-75
2021/08/01 01:05:57;;;;;;;4.88;4.38;;;19.00;78.50;;;;;;6223611;28;20042;-75
2021/08/01 01:09:02;;;;;;;5.93;4.18;;;19.00;79.00;;;;;;6222944;28;20046;-75
2021/08/01 01:12:08;;;;;;;4.05;3.42;;;19.00;79.00;;;;;;6223076;28;20042;-74
2021/08/01 01:15:15;;;;;;;4.53;4.15;;;18.90;79.00;;;;;;6222695;28;20107;-74
2021/08/01 01:18:21;;;;;;;3.45;3.13;;;18.90;79.30;;;;;;6223020;28;20099;-74
2021/08/01 01:21:48;;;;;;;7.68;3.97;;;18.90;79.40;;;;;;6222718;28;20084;-75
2021/08/01 01:24:53;;;;;;;5.65;3.83;;;18.80;79.90;;;;;;6222385;28;20049;-74
2021/08/01 01:28:08;;;;;;;3.55;3.25;;;18.90;79.40;;;;;;6222098;28;20680;-76
2021/08/01 01:31:32;;;;;;;6.82;2.80;;;18.90;79.20;;;;;;6222333;28;20168;-75
2021/08/01 01:34:46;;;;;;;7.32;4.25;;;18.90;79.00;;;;;;6222604;28;20053;-75
2021/08/01 01:37:52;;;;;;;4.22;3.20;;;18.90;78.80;;;;;;6222949;28;20061;-75
2021/08/01 01:40:56;;;;;;;9.90;3.17;;;18.80;78.80;;;;;;6222180;28;20049;-75
2021/08/01 01:43:59;;;;;;;5.70;4.13;;;18.80;78.90;;;;;;6222125;28;20422;-75
2021/08/01 01:47:01;;;;;;;5.43;3.13;;;18.80;79.20;;;;;;6222081;28;20172;-75
2021/08/01 01:50:03;;;;;;;4.22;3.15;;;18.80;79.70;;;;;;6222494;28;20188;-75
2021/08/01 01:53:07;;;;;;;3.90;3.10;;;18.70;79.80;;;;;;6222432;28;20173;-75
2021/08/01 01:56:10;;;;;;;11.95;3.97;;;18.70;80.00;;;;;;6222135;28;20129;-75
2021/08/01 01:59:13;;;;;;;8.40;3.67;;;18.70;80.20;;;;;;6222069;28;20508;-75
2021/08/01 02:02:15;;;;;;;5.28;3.20;;;18.60;80.50;;;;;;6222727;28;20049;-75
2021/08/01 02:05:16;;;;;;;5.47;3.55;;;18.60;80.10;;;;;;6221935;28;20046;-75
2021/08/01 02:08:20;;;;;;;4.43;3.30;;;18.60;80.10;;;;;;6221704;28;20423;-75
2021/08/01 02:11:23;;;;;;;4.38;3.97;;;18.50;80.40;;;;;;6222063;28;20050;-75
2021/08/01 02:14:30;;;;;;;5.68;3.80;;;18.50;80.90;;;;;;6221754;28;20484;-75
2021/08/01 02:17:39;;;;;;;6.13;3.92;;;18.50;81.20;;;;;;6222169;28;20104;-74
2021/08/01 02:20:43;;;;;;;4.68;3.53;;;18.50;81.60;;;;;;6221798;28;20089;-75
2021/08/01 02:23:47;;;;;;;5.35;3.50;;;18.40;81.60;;;;;;6222078;28;20053;-75
2021/08/01 02:26:49;;;;;;;5.80;3.72;;;18.40;81.80;;;;;;6222606;28;20053;-75
2021/08/01 02:29:52;;;;;;;4.00;3.28;;;18.30;82.00;;;;;;6222525;28;20133;-75
2021/08/01 02:32:56;;;;;;;4.03;3.47;;;18.30;82.20;;;;;;6221777;28;20046;-75
2021/08/01 02:36:01;;;;;;;8.18;3.33;;;18.30;82.60;;;;;;6221337;28;20507;-74
2021/08/01 02:39:04;;;;;;;6.15;3.10;;;18.30;82.60;;;;;;6221784;28;20121;-75
2021/08/01 02:42:10;;;;;;;7.18;3.63;;;18.30;82.90;;;;;;6250631;22;20042;-79
2021/08/01 02:45:13;;;;;;;6.88;5.07;;;18.30;83.30;;;;;;6247407;28;20046;-79
2021/08/01 02:48:17;;;;;;;4.13;3.30;;;18.20;83.60;;;;;;6247061;28;20142;-79
2021/08/01 02:51:19;;;;;;;6.95;3.80;;;18.20;84.50;;;;;;6247445;28;20176;-79
2021/08/01 02:54:24;;;;;;;4.63;3.67;;;18.20;84.90;;;;;;6247860;28;20422;-79
2021/08/01 02:57:30;;;;;;;7.07;3.50;;;18.20;85.30;;;;;;6247388;28;20096;-78
2021/08/01 03:00:33;;;;;;;5.13;3.85;;;18.10;86.20;;;;;;6246852;28;20482;-78
2021/08/01 03:03:37;;;;;;;5.28;3.78;;;18.10;86.30;;;;;;6246928;28;20140;-78
2021/08/01 03:06:40;;;;;;;7.85;4.18;;;18.10;86.90;;;;;;6246785;28;20045;-79
2021/08/01 03:09:44;;;;;;;10.85;4.88;;;18.00;87.20;;;;;;6247730;28;20071;-78
2021/08/01 03:12:47;;;;;;;5.63;3.40;;;18.00;88.10;;;;;;6251381;28;20174;-78
2021/08/01 03:15:50;;;;;;;4.90;4.15;;;17.90;88.90;;;;;;6251025;28;20095;-79
2021/08/01 03:18:52;;;;;;;7.72;4.75;;;17.90;90.00;;;;;;6251809;28;20484;-78
2021/08/01 03:21:54;;;;;;;7.72;4.18;;;17.80;90.40;;;;;;6252363;28;20053;-78
2021/08/01 03:24:57;;;;;;;4.90;3.92;;;17.80;90.70;;;;;;6251334;28;20286;-79
2021/08/01 03:27:59;;;;;;;8.27;4.90;;;17.80;91.10;;;;;;6252006;28;20041;-79
2021/08/01 03:31:00;;;;;;;6.80;6.13;;;17.70;91.30;;;;;;6251064;28;20175;-77
2021/08/01 03:34:02;;;;;;;8.85;5.00;;;17.70;91.70;;;;;;6250276;28;20049;-77
2021/08/01 03:37:05;;;;;;;9.65;3.95;;;17.70;92.20;;;;;;6249424;28;20045;-77
2021/08/01 03:40:09;;;;;;;5.93;4.85;;;17.70;92.50;;;;;;6249494;28;20048;-77
2021/08/01 03:43:12;;;;;;;5.55;4.32;;;17.70;92.90;;;;;;6249031;28;20037;-78
2021/08/01 03:46:14;;;;;;;9.90;5.28;;;17.70;93.40;;;;;;6249873;28;20082;-77
2021/08/01 03:49:15;;;;;;;7.05;5.45;;;17.70;93.70;;;;;;6249130;28;20412;-77
2021/08/01 03:52:17;;;;;;;10.45;5.68;;;17.70;93.80;;;;;;6249348;28;20454;-77
2021/08/01 03:55:20;;;;;;;7.25;5.28;;;17.70;94.20;;;;;;6248932;28;20081;-77
2021/08/01 03:58:22;;;;;;;7.55;4.68;;;17.70;95.00;;;;;;6249224;28;20054;-77
2021/08/01 04:01:24;;;;;;;7.63;5.88;;;17.60;95.60;;;;;;6249336;28;20116;-78
2021/08/01 04:04:26;;;;;;;9.07;4.53;;;17.50;96.20;;;;;;6248821;28;20188;-77
2021/08/01 04:07:28;;;;;;;7.03;5.55;;;17.40;96.90;;;;;;6248972;28;20095;-77
2021/08/01 04:10:31;;;;;;;7.25;5.05;;;17.40;97.70;;;;;;6249425;28;20159;-77
2021/08/01 04:13:33;;;;;;;11.75;4.90;;;17.40;98.30;;;;;;6249779;28;20154;-78
2021/08/01 04:16:36;;;;;;;8.80;5.43;;;17.40;98.80;;;;;;6248213;28;20641;-78
2021/08/01 04:19:38;;;;;;;7.70;6.25;;;17.50;99.20;;;;;;6248498;28;20112;-77
2021/08/01 04:22:40;;;;;;;9.90;5.57;;;17.40;99.50;;;;;;6247552;28;20053;-78
2021/08/01 04:25:43;;;;;;;6.45;4.93;;;17.50;99.70;;;;;;6248576;28;20132;-78
2021/08/01 04:28:45;;;;;;;13.48;6.10;;;17.50;99.90;;;;;;6248932;28;20128;-78
2021/08/01 04:31:47;;;;;;;11.10;5.78;;;17.50;99.90;;;;;;6247932;28;20212;-77
2021/08/01 04:34:49;;;;;;;6.45;5.45;;;17.50;99.90;;;;;;6248399;28;20041;-78
2021/08/01 04:37:50;;;;;;;5.22;4.72;;;17.50;99.90;;;;;;6248471;28;20096;-77
2021/08/01 04:40:54;;;;;;;6.95;5.35;;;17.50;99.90;;;;;;6248091;28;20045;-76
2021/08/01 04:43:55;;;;;;;9.23;5.38;;;17.50;99.90;;;;;;6247803;28;20069;-77
2021/08/01 04:46:57;;;;;;;8.38;4.85;;;17.50;99.90;;;;;;6247768;28;20130;-77
2021/08/01 04:49:59;;;;;;;7.45;5.03;;;17.50;99.90;;;;;;6248119;28;20140;-77
2021/08/01 04:53:01;;;;;;;7.88;5.05;;;17.60;99.90;;;;;;6247507;28;20123;-78
2021/08/01 04:56:09;;;;;;;9.48;5.05;;;17.60;99.90;;;;;;6247364;28;20060;-77
2021/08/01 04:59:10;;;;;;;11.60;6.07;;;17.60;99.90;;;;;;6247891;28;20042;-78
2021/08/01 05:02:12;;;;;;;4.68;4.05;;;17.60;99.90;;;;;;6248331;28;20136;-77
2021/08/01 05:05:14;;;;;;;13.52;5.82;;;17.60;99.90;;;;;;6247259;28;20128;-77
2021/08/01 05:08:16;;;;;;;8.35;5.78;;;17.60;99.90;;;;;;6247241;28;20060;-77
2021/08/01 05:11:19;;;;;;;5.60;4.90;;;17.60;99.90;;;;;;6247487;28;20067;-77
2021/08/01 05:14:21;;;;;;;10.80;5.78;;;17.70;99.90;;;;;;6247642;28;20081;-77
2021/08/01 05:17:23;;;;;;;5.63;4.80;;;17.70;99.90;;;;;;6247320;28;20046;-77
2021/08/01 05:20:25;;;;;;;10.40;6.68;;;17.70;99.90;;;;;;6247411;28;20092;-77
2021/08/01 05:23:26;;;;;;;6.28;5.30;;;17.70;99.90;;;;;;6247111;28;20119;-77
2021/08/01 05:26:30;;;;;;;6.63;5.63;;;17.80;99.90;;;;;;6246805;28;20104;-77
2021/08/01 05:29:31;;;;;;;6.63;4.68;;;17.80;99.90;;;;;;6247271;28;20077;-77
2021/08/01 05:32:34;;;;;;;5.82;4.57;;;17.80;99.90;;;;;;6246702;28;20103;-77
2021/08/01 05:35:37;;;;;;;6.50;5.38;;;17.80;99.90;;;;;;6246561;28;20041;-77
2021/08/01 05:38:39;;;;;;;5.63;4.63;;;17.90;99.90;;;;;;6247098;28;20061;-77
2021/08/01 05:41:43;;;;;;;9.65;5.22;;;17.90;99.90;;;;;;6246793;28;20049;-77
2021/08/01 05:44:44;;;;;;;5.75;4.90;;;18.00;99.90;;;;;;6246808;28;20175;-78
2021/08/01 05:47:46;;;;;;;7.18;4.95;;;18.00;99.90;;;;;;6246264;28;20528;-78
2021/08/01 05:50:48;;;;;;;7.40;5.30;;;18.10;99.90;;;;;;6246869;28;20046;-78
2021/08/01 05:53:50;;;;;;;9.85;5.60;;;18.10;99.90;;;;;;6246996;28;20501;-77
2021/08/01 05:56:53;;;;;;;6.88;4.57;;;18.10;99.90;;;;;;6246350;28;20041;-77
2021/08/01 05:59:55;;;;;;;8.70;5.55;;;18.10;99.90;;;;;;6246641;28;20115;-77
2021/08/01 06:02:56;;;;;;;8.98;5.45;;;18.10;99.90;;;;;;6246042;28;20124;-77
2021/08/01 06:06:07;;;;;;;7.47;6.78;;;18.10;99.90;;;;;;6237415;28;20136;-77
2021/08/01 06:09:08;;;;;;;6.57;4.30;;;18.10;99.90;;;;;;6246062;28;20128;-78
2021/08/01 06:12:12;;;;;;;4.43;4.03;;;18.20;99.90;;;;;;6246109;28;20045;-78
2021/08/01 06:15:13;;;;;;;5.63;3.55;;;18.30;99.90;;;;;;6246065;28;20076;-78
2021/08/01 06:18:15;;;;;;;5.25;4.30;;;18.20;99.90;;;;;;6246180;28;20139;-77
2021/08/01 06:21:19;;;;;;;5.32;3.83;;;18.30;99.50;;;;;;6245922;28;20227;-77
2021/08/01 06:24:20;;;;;;;5.20;3.38;;;18.30;99.20;;;;;;6245957;28;20049;-77
2021/08/01 06:27:24;;;;;;;3.85;2.60;;;18.30;97.30;;;;;;6245654;28;20046;-77
2021/08/01 06:30:25;;;;;;;4.35;2.70;;;18.40;95.40;;;;;;6245932;28;20456;-78
2021/08/01 06:33:27;;;;;;;6.72;2.97;;;18.40;94.40;;;;;;6246688;28;20056;-78
2021/08/01 06:36:29;;;;;;;5.25;1.92;;;18.40;93.60;;;;;;6245841;28;20096;-78
2021/08/01 06:39:31;;;;;;;6.50;3.78;;;18.40;92.70;;;;;;6245960;28;20171;-78
2021/08/01 06:42:34;;;;;;;3.20;2.42;;;18.50;91.70;;;;;;6245666;28;20045;-78
2021/08/01 06:45:36;;;;;;;2.75;2.03;;;18.50;91.50;;;;;;6248263;28;20573;-78
2021/08/01 06:48:39;;;;;;;3.67;2.13;;;18.50;91.40;;;;;;6250568;28;20642;-78
2021/08/01 06:51:40;;;;;;;7.75;3.45;;;18.50;91.10;;;;;;6250595;28;20111;-78
2021/08/01 06:54:42;;;;;;;3.53;2.65;;;18.60;91.20;;;;;;6250543;28;20128;-78
2021/08/01 06:57:45;;;;;;;5.63;2.80;;;18.60;91.10;;;;;;6250709;28;20156;-78
2021/08/01 07:00:48;;;;;;;2.67;2.30;;;18.60;91.40;;;;;;6250403;28;20073;-79
2021/08/01 07:03:49;;;;;;;3.10;2.40;;;18.70;91.40;;;;;;6250709;28;20056;-78
2021/08/01 07:06:51;;;;;;;5.25;2.63;;;18.80;91.90;;;;;;6250023;28;20502;-78
2021/08/01 07:09:53;;;;;;;3.17;2.10;;;18.80;92.20;;;;;;6251148;28;20116;-78
2021/08/01 07:12:56;;;;;;;4.32;3.13;;;18.70;92.50;;;;;;6250477;28;20523;-78
2021/08/01 07:16:01;;;;;;;2.38;2.17;;;18.60;93.10;;;;;;6249725;28;20045;-77
2021/08/01 07:19:03;;;;;;;4.40;2.67;;;18.60;92.80;;;;;;6250103;28;20041;-78
2021/08/01 07:22:05;;;;;;;7.07;3.13;;;18.60;93.00;;;;;;6250168;28;20622;-78
2021/08/01 07:25:08;;;;;;;2.65;2.40;;;18.60;93.60;;;;;;6249890;28;20056;-78
2021/08/01 07:28:12;;;;;;;2.38;2.17;;;18.70;92.90;;;;;;6249527;28;20408;-78
2021/08/01 07:31:13;;;;;;;2.30;1.83;;;18.80;92.40;;;;;;6249903;28;20122;-77
2021/08/01 07:34:15;;;;;;;3.10;2.55;;;18.90;92.20;;;;;;6249856;28;20076;-78
2021/08/01 07:37:17;;;;;;;3.38;2.55;;;19.00;91.80;;;;;;6249490;28;20594;-79
2021/08/01 07:40:19;;;;;;;3.67;2.45;;;19.20;91.40;;;;;;6249376;28;20179;-78
2021/08/01 07:43:22;;;;;;;5.57;3.50;;;19.20;90.40;;;;;;6249730;28;20045;-79
2021/08/01 07:46:24;;;;;;;10.35;2.95;;;19.20;90.10;;;;;;6250210;28;20052;-78
2021/08/01 07:49:26;;;;;;;4.22;2.50;;;19.30;90.10;;;;;;6250480;28;20060;-79
2021/08/01 07:52:28;;;;;;;5.13;2.72;;;19.40;89.80;;;;;;6249230;28;20069;-78
2021/08/01 07:55:29;;;;;;;4.15;2.47;;;19.40;88.80;;;;;;6248966;28;20172;-78
2021/08/01 07:58:33;;;;;;;3.70;2.22;;;19.40;88.30;;;;;;6249090;28;20049;-78
2021/08/01 08:01:35;;;;;;;12.90;7.72;;;19.30;88.90;;;;;;6249101;28;20503;-77
2021/08/01 08:04:36;;;;;;;21.50;15.52;;;19.40;88.70;;;;;;6249399;28;20519;-78
2021/08/01 08:07:38;;;;;;;6.43;4.10;;;19.50;88.90;;;;;;6246031;28;20096;-77
2021/08/01 08:10:40;;;;;;;3.42;2.80;;;19.60;87.70;;;;;;6249026;28;20053;-78
2021/08/01 08:13:43;;;;;;;5.10;3.40;;;19.70;86.80;;;;;;6249641;28;20049;-78
2021/08/01 08:16:45;;;;;;;6.13;2.85;;;19.80;87.40;;;;;;6248745;28;20252;-77
2021/08/01 08:19:47;;;;;;;5.05;2.47;;;19.90;86.10;;;;;;6248575;28;20052;-77
2021/08/01 08:22:48;;;;;;;8.00;3.00;;;19.90;85.20;;;;;;6248390;28;20546;-77
2021/08/01 08:25:52;;;;;;;4.65;1.88;;;20.00;85.00;;;;;;6248365;28;20072;-77
2021/08/01 08:28:55;;;;;;;5.40;3.17;;;20.10;84.80;;;;;;6248600;28;20045;-77
2021/08/01 08:31:58;;;;;;;6.03;2.58;;;20.20;84.00;;;;;;6248398;28;20137;-77
2021/08/01 08:35:00;;;;;;;3.03;2.75;;;20.20;82.80;;;;;;6248270;28;20167;-78
2021/08/01 08:38:02;;;;;;;4.65;2.90;;;20.30;82.60;;;;;;6248759;28;20045;-77
2021/08/01 08:41:04;;;;;;;4.93;2.30;;;20.30;82.30;;;;;;6248278;28;20132;-77
2021/08/01 08:44:07;;;;;;;4.68;2.65;;;20.50;81.40;;;;;;6271308;22;20128;-74
2021/08/01 08:47:10;;;;;;;3.90;2.47;;;20.60;80.70;;;;;;6248039;28;20124;-73
2021/08/01 08:50:15;;;;;;;6.38;2.95;;;20.70;80.90;;;;;;6248520;28;20059;-73
2021/08/01 08:53:20;;;;;;;4.47;2.95;;;20.80;80.60;;;;;;6247792;28;20057;-74
2021/08/01 08:56:24;;;;;;;3.03;2.83;;;21.10;80.80;;;;;;6248434;28;20120;-74
2021/08/01 08:59:28;;;;;;;7.88;3.60;;;21.20;79.20;;;;;;6248246;28;20645;-74
2021/08/01 09:02:30;;;;;;;6.45;2.53;;;21.30;78.10;;;;;;6248023;28;20051;-74
2021/08/01 09:05:32;;;;;;;7.38;2.75;;;21.40;78.10;;;;;;6248259;28;20140;-74
2021/08/01 09:08:36;;;;;;;6.38;3.38;;;21.60;78.20;;;;;;6247294;28;20049;-74
2021/08/01 09:11:37;;;;;;;9.18;3.13;;;21.80;76.80;;;;;;6247985;28;20128;-74
2021/08/01 09:14:40;;;;;;;8.15;3.20;;;21.90;75.70;;;;;;6247646;28;20049;-74
2021/08/01 09:17:43;;;;;;;4.75;3.03;;;22.10;74.90;;;;;;6247944;28;20056;-74
2021/08/01 09:20:50;;;;;;;6.43;3.25;;;22.20;75.00;;;;;;6247595;28;20045;-74
2021/08/01 09:23:52;;;;;;;4.32;3.47;;;22.30;74.60;;;;;;6247654;28;20410;-73
2021/08/01 09:26:57;;;;;;;3.83;2.72;;;22.30;73.70;;;;;;6246859;28;20455;-74
2021/08/01 09:30:01;;;;;;;3.67;2.80;;;22.30;73.60;;;;;;6247872;28;20152;-74
2021/08/01 09:33:03;;;;;;;7.57;2.97;;;22.20;74.20;;;;;;6247178;28;20546;-73
2021/08/01 09:36:07;;;;;;;6.30;3.42;;;22.20;73.50;;;;;;6247080;28;20053;-73
2021/08/01 09:39:09;;;;;;;5.60;3.08;;;22.20;73.30;;;;;;6247207;28;20045;-74
2021/08/01 09:42:12;;;;;;;6.75;2.50;;;22.30;72.70;;;;;;6247253;28;20373;-74
2021/08/01 09:45:18;;;;;;;6.35;2.75;;;22.30;72.40;;;;;;6247388;28;20131;-74
2021/08/01 09:48:21;;;;;;;5.03;3.08;;;22.50;72.10;;;;;;6246206;28;20183;-76
2021/08/01 09:51:23;;;;;;;4.82;2.75;;;22.60;71.30;;;;;;6247116;28;20455;-73
2021/08/01 09:54:27;;;;;;;4.53;3.67;;;22.60;70.70;;;;;;6247234;28;20136;-74
2021/08/01 09:57:29;;;;;;;4.45;3.30;;;22.60;70.60;;;;;;6246978;28;20127;-74
2021/08/01 10:00:32;;;;;;;3.60;3.30;;;22.50;70.70;;;;;;6246955;28;20123;-74
2021/08/01 10:03:35;;;;;;;5.28;2.83;;;22.50;71.10;;;;;;6246421;28;20135;-73
2021/08/01 10:06:37;;;;;;;4.53;3.65;;;22.60;70.50;;;;;;6246415;28;20060;-74
2021/08/01 10:09:40;;;;;;;3.25;2.88;;;22.90;70.30;;;;;;6247432;28;20418;-73
2021/08/01 10:12:45;;;;;;;4.03;2.97;;;23.10;68.60;;;;;;6246606;28;20202;-73
2021/08/01 10:15:49;;;;;;;3.03;2.42;;;23.20;68.80;;;;;;6245752;28;20060;-73
2021/08/01 10:18:52;;;;;;;4.82;3.03;;;23.30;68.50;;;;;;6246187;28;20124;-74
2021/08/01 10:21:57;;;;;;;7.80;4.25;;;23.20;67.70;;;;;;6248760;28;20128;-73
2021/08/01 10:25:05;;;;;;;3.47;2.63;;;23.20;68.40;;;;;;6250971;28;20054;-74
2021/08/01 10:28:09;;;;;;;4.88;3.40;;;23.20;67.40;;;;;;6251155;28;20045;-73
2021/08/01 10:31:16;;;;;;;2.72;2.45;;;23.40;66.80;;;;;;6251085;28;20048;-74
2021/08/01 10:34:27;;;;;;;4.63;3.10;;;23.60;67.10;;;;;;6249520;28;20190;-74
2021/08/01 10:37:32;;;;;;;4.70;2.95;;;23.80;66.30;;;;;;6251254;28;20402;-73
2021/08/01 10:40:35;;;;;;;3.97;2.72;;;23.90;65.60;;;;;;6250688;28;20128;-74
2021/08/01 10:43:41;;;;;;;2.25;2.00;;;24.00;64.70;;;;;;6250814;28;20045;-73
2021/08/01 10:46:44;;;;;;;4.88;2.38;;;24.20;63.70;;;;;;6250301;28;20049;-73
2021/08/01 10:49:48;;;;;;;5.55;2.33;;;24.40;63.50;;;;;;6251414;28;20163;-74
2021/08/01 10:52:50;;;;;;;6.45;2.70;;;24.40;63.30;;;;;;6251232;28;20514;-74
2021/08/01 10:55:53;;;;;;;5.18;2.70;;;24.30;63.30;;;;;;6251022;28;20473;-75
2021/08/01 10:58:55;;;;;;;3.53;2.10;;;24.30;63.30;;;;;;6252264;28;20054;-74
2021/08/01 11:02:15;;;;;;;5.68;2.65;;;24.40;63.30;;;;;;6252225;28;20065;-74
2021/08/01 11:05:39;;;;;;;6.85;2.85;;;24.60;62.10;;;;;;6276942;28;20030;-74
2021/08/01 11:09:08;;;;;;;3.90;1.77;;;24.90;62.20;;;;;;6282733;28;20037;-74
2021/08/01 11:12:37;;;;;;;6.45;2.53;;;25.40;60.30;;;;;;6282469;28;20033;-75
2021/08/01 11:15:47;;;;;;;3.40;2.13;;;25.60;58.80;;;;;;6236981;28;20044;-74
2021/08/01 11:18:51;;;;;;;3.10;1.80;;;25.70;58.10;;;;;;6282631;28;20046;-75
2021/08/01 11:21:52;;;;;;;5.72;2.50;;;25.60;58.00;;;;;;6282913;28;20045;-74
2021/08/01 11:25:19;;;;;;;3.58;2.53;;;25.80;58.50;;;;;;6281374;28;20033;-75
2021/08/01 11:28:28;;;;;;;3.75;1.90;;;26.20;58.30;;;;;;6280837;28;20029;-74
2021/08/01 11:31:30;;;;;;;7.95;1.73;;;26.20;56.30;;;;;;6258004;28;20037;-74
2021/08/01 11:34:33;;;;;;;2.90;2.00;;;26.20;55.90;;;;;;6251625;28;20066;-74
2021/08/01 11:37:36;;;;;;;6.20;2.72;;;26.20;56.00;;;;;;6251205;28;20095;-76
2021/08/01 11:40:48;;;;;;;2.75;1.48;;;26.20;55.30;;;;;;6249962;28;20532;-74
2021/08/01 11:43:57;;;;;;;2.78;1.23;;;26.40;55.50;;;;;;6246743;28;20152;-74
2021/08/01 11:47:02;;;;;;;4.00;1.10;;;26.70;54.10;;;;;;6244816;28;20049;-73
2021/08/01 11:50:07;;;;;;;2.67;1.60;;;26.90;52.50;;;;;;6249501;28;20124;-74
2021/08/01 11:53:10;;;;;;;3.97;2.35;;;27.30;53.00;;;;;;6248655;28;20063;-74
2021/08/01 11:56:13;;;;;;;2.30;1.73;;;27.40;51.80;;;;;;6234862;28;20050;-72
2021/08/01 11:59:17;;;;;;;5.30;1.80;;;27.50;51.60;;;;;;6218646;28;20045;-72
2021/08/01 12:02:19;;;;;;;3.45;1.90;;;27.40;51.40;;;;;;6253457;28;20054;-74
2021/08/01 12:05:23;;;;;;;5.75;1.42;;;27.50;51.40;;;;;;6251441;28;20298;-72
2021/08/01 12:08:30;;;;;;;4.00;1.73;;;27.80;51.30;;;;;;6249892;28;20144;-73
2021/08/01 12:11:32;;;;;;;2.85;1.20;;;28.10;48.90;;;;;;6249368;28;20054;-75
2021/08/01 12:14:35;;;;;;;2.50;1.48;;;28.10;48.00;;;;;;6248467;28;20184;-74
2021/08/01 12:17:38;;;;;;;2.38;1.60;;;27.90;48.40;;;;;;6248461;28;20050;-74
2021/08/01 12:20:41;;;;;;;2.78;1.60;;;27.80;48.60;;;;;;6248146;28;20124;-74
2021/08/01 12:23:43;;;;;;;2.85;1.15;;;27.70;49.10;;;;;;6248098;28;20614;-75
2021/08/01 12:26:44;;;;;;;17.92;2.15;;;27.50;48.40;;;;;;6247885;28;20037;-73
2021/08/01 12:29:49;;;;;;;5.68;1.25;;;26.80;47.30;;;;;;6248003;28;20053;-74
2021/08/01 12:32:52;;;;;;;2.38;1.00;;;26.00;48.80;;;;;;6247963;28;20099;-74
2021/08/01 12:35:56;;;;;;;3.85;1.23;;;25.00;53.80;;;;;;6247123;28;20049;-74
2021/08/01 12:38:57;;;;;;;2.28;1.13;;;23.80;59.20;;;;;;6247495;28;20406;-73
2021/08/01 12:42:03;;;;;;;4.45;1.88;;;22.40;63.90;;;;;;6247048;28;20559;-73
2021/08/01 12:45:06;;;;;;;2.70;1.70;;;21.30;67.70;;;;;;6246665;28;20516;-74
2021/08/01 12:48:10;;;;;;;5.03;2.50;;;20.40;69.60;;;;;;6245939;28;20135;-73
2021/08/01 12:51:13;;;;;;;2.35;1.60;;;19.60;73.40;;;;;;6247587;28;20682;-73
2021/08/01 12:54:18;;;;;;;5.05;2.58;;;19.10;76.50;;;;;;6247942;28;20110;-73
2021/08/01 12:57:21;;;;;;;1.95;1.75;;;18.60;77.80;;;;;;6246708;28;20108;-73
2021/08/01 13:00:29;;;;;;;3.75;2.45;;;18.30;79.60;;;;;;6247792;28;20172;-73
2021/08/01 13:03:32;;;;;;;5.10;2.67;;;18.00;81.60;;;;;;6247133;28;20418;-73
2021/08/01 13:06:35;;;;;;;3.97;2.85;;;17.80;83.30;;;;;;6246900;28;20085;-74
2021/08/01 13:09:38;;;;;;;3.28;2.78;;;17.70;85.40;;;;;;6247345;28;20089;-74
2021/08/01 13:12:40;;;;;;;3.50;2.88;;;17.40;86.30;;;;;;6246772;28;20432;-75
2021/08/01 13:15:44;;;;;;;4.32;2.28;;;17.30;87.10;;;;;;6247080;28;20053;-73
2021/08/01 13:18:46;;;;;;;3.92;2.75;;;17.00;89.10;;;;;;6247449;28;20046;-74
2021/08/01 13:22:14;;;;;;;5.15;2.80;;;16.90;90.60;;;;;;6248408;28;20136;-74
2021/08/01 13:25:16;;;;;;;5.20;2.42;;;16.80;91.90;;;;;;6228482;28;20057;-73
2021/08/01 13:28:18;;;;;;;4.00;2.83;;;16.80;93.10;;;;;;6246647;28;20065;-73
2021/08/01 13:31:21;;;;;;;5.68;2.70;;;16.80;94.50;;;;;;6247563;28;20403;-73
2021/08/01 13:34:37;;;;;;;3.33;3.03;;;16.90;96.10;;;;;;6247088;28;20542;-73
2021/08/01 13:37:41;;;;;;;3.60;2.10;;;17.00;97.20;;;;;;6247040;28;20050;-73
2021/08/01 13:40:43;;;;;;;3.25;2.95;;;17.20;97.90;;;;;;6246207;28;20525;-73
2021/08/01 13:44:09;;;;;;;5.40;2.65;;;17.40;99.30;;;;;;6245909;28;20042;-73
2021/08/01 13:47:14;;;;;;;4.68;2.55;;;17.70;99.00;;;;;;6239014;28;20057;-73
2021/08/01 13:50:16;;;;;;;3.88;2.17;;;17.80;98.50;;;;;;6245905;28;20103;-73
2021/08/01 13:53:18;;;;;;;3.35;2.53;;;17.90;98.80;;;;;;6245966;28;20073;-73
2021/08/01 13:56:20;;;;;;;11.30;2.83;;;18.10;99.40;;;;;;6245884;28;20132;-73
2021/08/01 13:59:23;;;;;;;3.17;1.80;;;18.40;99.40;;;;;;6245827;28;20183;-73
2021/08/01 14:02:26;;;;;;;3.05;1.67;;;18.70;98.90;;;;;;6246226;28;20053;-73
2021/08/01 14:05:28;;;;;;;4.28;2.08;;;18.80;97.10;;;;;;6246226;28;20077;-72
2021/08/01 14:08:30;;;;;;;5.15;2.15;;;19.00;96.20;;;;;;6246028;28;20049;-74
2021/08/01 14:11:32;;;;;;;1.75;1.25;;;19.00;96.00;;;;;;6246089;28;20064;-74
2021/08/01 14:14:36;;;;;;;3.35;2.60;;;19.10;95.00;;;;;;6245635;28;20132;-75
2021/08/01 14:17:38;;;;;;;1.60;1.33;;;19.10;95.50;;;;;;6245839;28;20050;-74
2021/08/01 14:20:40;;;;;;;1.50;1.38;;;19.10;94.20;;;;;;6245793;28;20175;-74
2021/08/01 14:23:42;;;;;;;1.80;1.60;;;19.20;94.10;;;;;;6245883;28;20095;-74
2021/08/01 14:26:48;;;;;;;2.00;1.80;;;19.20;92.40;;;;;;6245604;28;20486;-74
2021/08/01 14:29:51;;;;;;;1.95;1.20;;;19.40;91.10;;;;;;6246322;28;20056;-74
2021/08/01 14:32:54;;;;;;;1.95;1.30;;;19.50;90.20;;;;;;6245206;28;20061;-76
2021/08/01 14:35:57;;;;;;;1.95;1.27;;;19.70;87.90;;;;;;6245754;28;20045;-74
2021/08/01 14:38:59;;;;;;;1.42;1.00;;;19.90;87.20;;;;;;6245267;28;20077;-74
2021/08/01 14:42:01;;;;;;;2.42;1.65;;;20.00;84.10;;;;;;6245479;28;20056;-74
2021/08/01 14:45:05;;;;;;;1.30;0.95;;;20.10;82.30;;;;;;6245851;28;20049;-74
2021/08/01 14:48:10;;;;;;;2.03;1.65;;;20.20;80.30;;;;;;6235704;28;20774;-73
2021/08/01 14:52:58;;;;;;;1.67;1.02;;;20.30;80.10;;;;;;6244888;28;20037;-75
2021/08/01 14:54:35;;;;;;;1.33;1.23;;;20.50;79.00;;;;;;6244989;28;20065;-74
2021/08/01 14:57:46;;;;;;;2.47;1.23;;;20.90;78.40;;;;;;6245101;28;20495;-74
2021/08/01 15:00:53;;;;;;;1.98;1.23;;;21.10;77.40;;;;;;6245777;28;20142;-74
2021/08/01 15:03:59;;;;;;;1.08;0.88;;;21.30;75.40;;;;;;6245237;28;20048;-73
2021/08/01 15:07:07;;;;;;;2.20;0.80;;;21.60;73.50;;;;;;6248103;28;20549;-72
2021/08/01 15:10:15;;;;;;;1.60;1.15;;;21.90;71.70;;;;;;6250238;28;20053;-73
2021/08/01 15:13:35;;;;;;;0.90;0.90;;;22.20;70.60;;;;;;6250304;28;20071;-73
2021/08/01 15:16:41;;;;;;;4.47;1.00;;;22.60;69.60;;;;;;6249305;28;20503;-73
2021/08/01 15:19:46;;;;;;;1.30;1.20;;;22.80;66.20;;;;;;6249955;28;20134;-73
2021/08/01 15:22:54;;;;;;;0.80;0.80;;;23.00;66.20;;;;;;6249874;28;20049;-73
2021/08/01 15:25:56;;;;;;;1.90;0.98;;;23.20;65.90;;;;;;6249975;28;20179;-73
2021/08/01 15:28:59;;;;;;;1.27;1.05;;;23.40;64.50;;;;;;6249460;28;20587;-73
2021/08/01 15:32:02;;;;;;;1.65;0.98;;;23.50;63.60;;;;;;6249455;28;20298;-73
2021/08/01 15:35:06;;;;;;;0.90;0.80;;;23.70;62.20;;;;;;6249479;28;20051;-73
2021/08/01 15:38:11;;;;;;;2.03;0.93;;;23.80;61.20;;;;;;6249840;28;20049;-73
2021/08/01 15:41:13;;;;;;;4.57;1.45;;;23.70;62.20;;;;;;6249204;28;20073;-73
2021/08/01 15:44:18;;;;;;;3.08;1.05;;;23.80;63.10;;;;;;6248770;28;20051;-73
2021/08/01 15:47:22;;;;;;;2.30;1.08;;;23.90;64.20;;;;;;6248542;28;20175;-73
2021/08/01 15:50:25;;;;;;;1.10;0.98;;;24.00;62.80;;;;;;6241614;28;20052;-73
2021/08/01 15:53:34;;;;;;;1.67;1.20;;;24.10;62.40;;;;;;6248951;28;20048;-73
2021/08/01 15:56:41;;;;;;;2.78;1.73;;;24.00;62.60;;;;;;6248346;28;20045;-73